This is the latest recevied weather packets stored in our database for station/object KG4QXL-1. If no packets are shown the sender has not sent any weather packets the latest 10 day(s).
| Time | Temp. | Humidity | Pressure | Rain* | Wind** | Luminosity | Snow |
|---|---|---|---|---|---|---|---|
| 1777635959 | 2.22° C | 99% | 1023.1 hPa | 0 mm | - | 71 W/m² | - |
| 1777632358 | 0.56° C | 99% | 1023.5 hPa | 0 mm | - | 13 W/m² | - |
| 1777627558 | 0.56° C | 99% | 1023.6 hPa | 0 mm | - | 0 W/m² | - |
| 1777626358 | 0.56° C | 99% | 1023.6 hPa | 0 mm | - | 0 W/m² | - |
| 1777623958 | 0.56° C | 99% | 1023.3 hPa | 0 mm | - | 0 W/m² | - |
| 1777622778 | 0.56° C | 99% | 1023.3 hPa | 0 mm | - | 0 W/m² | - |
| 1777620958 | 0.56° C | 98% | 1023.2 hPa | 0 mm | - | 0 W/m² | - |
| 1777620358 | 1.11° C | 98% | 1023 hPa | 0 mm | - | 0 W/m² | - |
| 1777614358 | 2.22° C | 96% | 1023.2 hPa | 0 mm | - | 0 W/m² | - |
| 1777611358 | 2.78° C | 95% | 1023.3 hPa | 0 mm | - | 0 W/m² | - |
| 1777608360 | 3.89° C | 92% | 1022.8 hPa | 0 mm | - | 0 W/m² | - |
| 1777607758 | 3.89° C | 91% | 1022.6 hPa | 0 mm | - | 0 W/m² | - |
| 1777605358 | 5° C | 87% | 1022.6 hPa | 0 mm | - | 0 W/m² | - |
| 1777599958 | 8.33° C | 71% | 1021.7 hPa | 0 mm | - | 0 W/m² | - |
| 1777598759 | 8.89° C | 67% | 1021.2 hPa | 0 mm | - | 0 W/m² | - |
| 1777595158 | 11.11° C | 58% | 1020.6 hPa | 0 mm | - | 0 W/m² | - |
| 1777592158 | 11.11° C | 65% | 1020.1 hPa | 0 mm | - | 13 W/m² | - |
| 1777575358 | 18.33° C | 39% | 1016.4 hPa | 0 mm | - | 316 W/m² | - |
| 1777573558 | 17.78° C | 41% | 1016.4 hPa | 0 mm | - | 683 W/m² | - |
| 1777572359 | 16.67° C | 41% | 1016.5 hPa | 0 mm | - | 182 W/m² | - |
| 1777569358 | 16.67° C | 47% | 1016.2 hPa | 0 mm | - | 826 W/m² | - |
| 1777568758 | 16.67° C | 46% | 1016.2 hPa | 0 mm | - | 221 W/m² | - |
| 1777566958 | 17.22° C | 46% | 1016.3 hPa | 0 mm | - | 791 W/m² | - |
| 1777566358 | 16.11° C | 51% | 1016.7 hPa | 0 mm | - | 543 W/m² | - |
| 1777563358 | 16.67° C | 55% | 1015.9 hPa | 0 mm | - | 238 W/m² | - |
* Rain latest hour (hover to see other rain measurements)
** Current wind speed in m/s (hover to see current wind gust speed)